sensor_id;sensor_type;location;lat;lon;timestamp;pressure;altitude;pressure_sealevel;temperature;humidity
11041;BME280;5573;49.592;8.662;2023-05-20T00:01:03;100113.69;;;12.34;63.82
11041;BME280;5573;49.592;8.662;2023-05-20T00:03:31;100109.53;;;12.38;64.26
11041;BME280;5573;49.592;8.662;2023-05-20T00:06:01;100116.63;;;12.57;62.83
11041;BME280;5573;49.592;8.662;2023-05-20T00:08:29;100121.56;;;12.54;62.96
11041;BME280;5573;49.592;8.662;2023-05-20T00:10:56;100123.69;;;12.45;64.62
11041;BME280;5573;49.592;8.662;2023-05-20T00:13:25;100118.38;;;12.39;64.04
11041;BME280;5573;49.592;8.662;2023-05-20T00:15:53;100126.91;;;12.54;63.40
11041;BME280;5573;49.592;8.662;2023-05-20T00:18:21;100121.53;;;12.60;62.19
11041;BME280;5573;49.592;8.662;2023-05-20T00:20:48;100118.28;;;12.77;61.44
11041;BME280;5573;49.592;8.662;2023-05-20T00:23:17;100109.31;;;12.71;62.46
11041;BME280;5573;49.592;8.662;2023-05-20T00:25:45;100117.72;;;12.75;62.65
11041;BME280;5573;49.592;8.662;2023-05-20T00:28:13;100121.97;;;12.82;61.94
11041;BME280;5573;49.592;8.662;2023-05-20T00:30:41;100124.06;;;12.80;62.24
11041;BME280;5573;49.592;8.662;2023-05-20T00:33:10;100117.53;;;12.70;62.62
11041;BME280;5573;49.592;8.662;2023-05-20T00:35:38;100119.28;;;12.57;64.00
11041;BME280;5573;49.592;8.662;2023-05-20T00:38:06;100113.38;;;12.49;64.52
11041;BME280;5573;49.592;8.662;2023-05-20T00:40:35;100117.72;;;12.43;64.75
11041;BME280;5573;49.592;8.662;2023-05-20T00:43:03;100115.78;;;12.26;65.77
11041;BME280;5573;49.592;8.662;2023-05-20T00:45:31;100115.84;;;12.12;66.09
11041;BME280;5573;49.592;8.662;2023-05-20T00:48:00;100113.19;;;12.12;66.81
11041;BME280;5573;49.592;8.662;2023-05-20T00:50:30;100110.47;;;12.19;65.57
11041;BME280;5573;49.592;8.662;2023-05-20T00:52:58;100112.13;;;12.13;66.73
11041;BME280;5573;49.592;8.662;2023-05-20T00:55:26;100109.25;;;12.15;66.63
11041;BME280;5573;49.592;8.662;2023-05-20T00:57:55;100092.47;;;12.08;67.59
11041;BME280;5573;49.592;8.662;2023-05-20T01:00:24;100099.09;;;11.92;68.17
11041;BME280;5573;49.592;8.662;2023-05-20T01:02:52;100103.19;;;11.95;67.30
11041;BME280;5573;49.592;8.662;2023-05-20T01:05:22;100106.13;;;11.87;68.36
11041;BME280;5573;49.592;8.662;2023-05-20T01:07:50;100098.50;;;11.84;68.86
11041;BME280;5573;49.592;8.662;2023-05-20T01:10:18;100093.41;;;11.82;69.50
11041;BME280;5573;49.592;8.662;2023-05-20T01:12:48;100091.78;;;11.68;70.50
11041;BME280;5573;49.592;8.662;2023-05-20T01:15:21;100086.88;;;11.72;70.31
11041;BME280;5573;49.592;8.662;2023-05-20T01:17:51;100091.59;;;11.63;70.18
11041;BME280;5573;49.592;8.662;2023-05-20T01:20:23;100096.31;;;11.67;70.43
11041;BME280;5573;49.592;8.662;2023-05-20T01:22:55;100085.47;;;11.56;70.58
11041;BME280;5573;49.592;8.662;2023-05-20T01:25:23;100088.31;;;11.54;70.81
11041;BME280;5573;49.592;8.662;2023-05-20T01:27:53;100090.59;;;11.57;69.84
11041;BME280;5573;49.592;8.662;2023-05-20T01:30:25;100082.13;;;11.67;70.03
11041;BME280;5573;49.592;8.662;2023-05-20T01:33:00;100069.66;;;11.61;70.25
11041;BME280;5573;49.592;8.662;2023-05-20T01:35:29;100083.34;;;11.78;69.84
11041;BME280;5573;49.592;8.662;2023-05-20T01:37:59;100074.78;;;11.56;70.58
11041;BME280;5573;49.592;8.662;2023-05-20T01:40:28;100081.94;;;11.68;70.42
11041;BME280;5573;49.592;8.662;2023-05-20T01:42:57;100073.13;;;11.68;69.93
11041;BME280;5573;49.592;8.662;2023-05-20T01:45:26;100078.28;;;11.56;70.75
11041;BME280;5573;49.592;8.662;2023-05-20T01:47:53;100077.44;;;11.62;70.87
11041;BME280;5573;49.592;8.662;2023-05-20T01:50:22;100083.81;;;12.06;67.55
11041;BME280;5573;49.592;8.662;2023-05-20T01:52:50;100071.34;;;12.00;68.63
11041;BME280;5573;49.592;8.662;2023-05-20T01:55:19;100074.44;;;11.97;68.65
11041;BME280;5573;49.592;8.662;2023-05-20T01:57:46;100071.19;;;11.88;69.95
11041;BME280;5573;49.592;8.662;2023-05-20T02:00:15;100065.09;;;11.75;71.47
11041;BME280;5573;49.592;8.662;2023-05-20T02:02:43;100070.84;;;11.65;71.14
11041;BME280;5573;49.592;8.662;2023-05-20T02:05:12;100060.41;;;11.63;70.73
11041;BME280;5573;49.592;8.662;2023-05-20T02:07:41;100058.97;;;11.54;71.24
11041;BME280;5573;49.592;8.662;2023-05-20T02:10:10;100062.69;;;11.47;72.15
11041;BME280;5573;49.592;8.662;2023-05-20T02:12:39;100054.72;;;11.40;72.40
11041;BME280;5573;49.592;8.662;2023-05-20T02:15:08;100060.22;;;11.52;71.33
11041;BME280;5573;49.592;8.662;2023-05-20T02:17:36;100055.50;;;11.60;71.08
11041;BME280;5573;49.592;8.662;2023-05-20T02:20:06;100054.63;;;11.66;70.55
11041;BME280;5573;49.592;8.662;2023-05-20T02:22:34;100053.38;;;11.82;70.51
11041;BME280;5573;49.592;8.662;2023-05-20T02:25:03;100048.13;;;12.00;69.67
11041;BME280;5573;49.592;8.662;2023-05-20T02:27:30;100054.34;;;12.26;68.01
11041;BME280;5573;49.592;8.662;2023-05-20T02:30:00;100055.50;;;12.36;67.87
11041;BME280;5573;49.592;8.662;2023-05-20T02:32:28;100046.13;;;12.27;69.31
11041;BME280;5573;49.592;8.662;2023-05-20T02:34:56;100045.38;;;12.45;67.99
11041;BME280;5573;49.592;8.662;2023-05-20T02:37:24;100051.09;;;12.48;67.55
11041;BME280;5573;49.592;8.662;2023-05-20T02:39:52;100042.31;;;12.66;67.83
11041;BME280;5573;49.592;8.662;2023-05-20T02:42:22;100044.84;;;12.61;67.89
11041;BME280;5573;49.592;8.662;2023-05-20T02:44:49;100044.16;;;12.65;67.46
11041;BME280;5573;49.592;8.662;2023-05-20T02:47:20;100040.38;;;12.80;66.62
11041;BME280;5573;49.592;8.662;2023-05-20T02:49:47;100042.09;;;12.68;68.13
11041;BME280;5573;49.592;8.662;2023-05-20T02:52:15;100027.09;;;12.67;67.98
11041;BME280;5573;49.592;8.662;2023-05-20T02:54:43;100023.09;;;12.57;68.98
11041;BME280;5573;49.592;8.662;2023-05-20T02:57:11;100032.19;;;12.50;69.51
11041;BME280;5573;49.592;8.662;2023-05-20T02:59:38;100033.84;;;12.44;70.22
11041;BME280;5573;49.592;8.662;2023-05-20T03:02:06;100037.56;;;12.43;67.77
11041;BME280;5573;49.592;8.662;2023-05-20T03:04:35;100034.88;;;12.43;67.48
11041;BME280;5573;49.592;8.662;2023-05-20T03:07:05;100040.47;;;12.42;67.90
11041;BME280;5573;49.592;8.662;2023-05-20T03:09:34;100042.56;;;12.33;67.76
11041;BME280;5573;49.592;8.662;2023-05-20T03:12:04;100034.81;;;12.25;68.66
11041;BME280;5573;49.592;8.662;2023-05-20T03:14:31;100035.88;;;12.24;68.36
11041;BME280;5573;49.592;8.662;2023-05-20T03:16:59;100033.34;;;12.29;68.51
11041;BME280;5573;49.592;8.662;2023-05-20T03:19:27;100022.47;;;12.31;69.54
11041;BME280;5573;49.592;8.662;2023-05-20T03:21:56;100034.94;;;12.37;69.12
11041;BME280;5573;49.592;8.662;2023-05-20T03:24:25;100031.84;;;12.40;69.16
11041;BME280;5573;49.592;8.662;2023-05-20T03:26:53;100036.78;;;12.36;70.35
11041;BME280;5573;49.592;8.662;2023-05-20T03:29:22;100030.09;;;12.52;69.11
11041;BME280;5573;49.592;8.662;2023-05-20T03:31:50;100024.59;;;12.72;68.86
11041;BME280;5573;49.592;8.662;2023-05-20T03:34:18;100026.84;;;12.93;67.79
11041;BME280;5573;49.592;8.662;2023-05-20T03:36:49;100025.41;;;13.15;66.23
11041;BME280;5573;49.592;8.662;2023-05-20T03:39:19;100025.50;;;13.27;66.00
11041;BME280;5573;49.592;8.662;2023-05-20T03:41:47;100027.22;;;13.21;66.79
11041;BME280;5573;49.592;8.662;2023-05-20T03:44:14;100024.97;;;13.18;67.49
11041;BME280;5573;49.592;8.662;2023-05-20T03:46:43;100033.44;;;13.15;67.56
11041;BME280;5573;49.592;8.662;2023-05-20T03:49:12;100032.41;;;13.16;67.92
11041;BME280;5573;49.592;8.662;2023-05-20T03:51:40;100029.81;;;13.09;67.49
11041;BME280;5573;49.592;8.662;2023-05-20T03:54:10;100022.66;;;13.22;66.49
11041;BME280;5573;49.592;8.662;2023-05-20T03:56:41;100022.28;;;13.36;65.70
11041;BME280;5573;49.592;8.662;2023-05-20T03:59:09;100028.91;;;13.34;66.03
11041;BME280;5573;49.592;8.662;2023-05-20T04:01:38;100023.06;;;13.43;65.82
11041;BME280;5573;49.592;8.662;2023-05-20T04:04:05;100031.47;;;13.47;65.90
11041;BME280;5573;49.592;8.662;2023-05-20T04:06:33;100021.50;;;13.36;66.62
11041;BME280;5573;49.592;8.662;2023-05-20T04:09:01;100025.13;;;13.41;66.58
11041;BME280;5573;49.592;8.662;2023-05-20T04:11:29;100027.97;;;13.46;66.34
11041;BME280;5573;49.592;8.662;2023-05-20T04:13:58;100031.22;;;13.48;66.72
11041;BME280;5573;49.592;8.662;2023-05-20T04:16:27;100028.31;;;13.50;66.37
11041;BME280;5573;49.592;8.662;2023-05-20T04:18:56;100024.53;;;13.57;65.84
11041;BME280;5573;49.592;8.662;2023-05-20T04:21:25;100025.78;;;13.55;66.46
11041;BME280;5573;49.592;8.662;2023-05-20T04:23:53;100027.78;;;13.59;65.73
11041;BME280;5573;49.592;8.662;2023-05-20T04:26:21;100029.28;;;13.55;66.23
11041;BME280;5573;49.592;8.662;2023-05-20T04:28:49;100030.00;;;13.63;65.64
11041;BME280;5573;49.592;8.662;2023-05-20T04:31:18;100028.31;;;13.68;65.03
11041;BME280;5573;49.592;8.662;2023-05-20T04:33:46;100024.53;;;13.57;65.83
11041;BME280;5573;49.592;8.662;2023-05-20T04:36:14;100023.16;;;13.67;65.34
11041;BME280;5573;49.592;8.662;2023-05-20T04:38:43;100032.25;;;13.66;65.35
11041;BME280;5573;49.592;8.662;2023-05-20T04:41:12;100032.63;;;13.69;65.42
11041;BME280;5573;49.592;8.662;2023-05-20T04:43:43;100035.50;;;13.68;65.49
11041;BME280;5573;49.592;8.662;2023-05-20T04:46:11;100037.38;;;13.67;65.48
11041;BME280;5573;49.592;8.662;2023-05-20T04:48:42;100039.59;;;13.70;65.75
11041;BME280;5573;49.592;8.662;2023-05-20T04:51:11;100033.06;;;13.66;65.84
11041;BME280;5573;49.592;8.662;2023-05-20T04:53:39;100034.59;;;13.74;66.52
11041;BME280;5573;49.592;8.662;2023-05-20T04:56:09;100030.06;;;13.74;65.75
11041;BME280;5573;49.592;8.662;2023-05-20T04:58:37;100039.44;;;13.83;65.00
11041;BME280;5573;49.592;8.662;2023-05-20T05:01:05;100036.16;;;13.81;66.23
11041;BME280;5573;49.592;8.662;2023-05-20T05:03:33;100026.16;;;13.58;67.53
11041;BME280;5573;49.592;8.662;2023-05-20T05:06:04;100018.53;;;13.74;65.60
11041;BME280;5573;49.592;8.662;2023-05-20T05:08:32;100023.47;;;13.77;65.39
11041;BME280;5573;49.592;8.662;2023-05-20T05:11:00;100019.56;;;13.91;65.42
11041;BME280;5573;49.592;8.662;2023-05-20T05:13:28;100019.09;;;13.94;65.42
11041;BME280;5573;49.592;8.662;2023-05-20T05:15:58;100014.78;;;13.93;66.03
11041;BME280;5573;49.592;8.662;2023-05-20T05:18:28;100014.25;;;14.02;65.31
11041;BME280;5573;49.592;8.662;2023-05-20T05:20:59;100020.06;;;14.11;65.13
11041;BME280;5573;49.592;8.662;2023-05-20T05:23:29;100014.72;;;14.11;65.13
11041;BME280;5573;49.592;8.662;2023-05-20T05:25:58;100018.09;;;14.06;64.83
11041;BME280;5573;49.592;8.662;2023-05-20T05:28:26;100006.00;;;14.16;64.96
11041;BME280;5573;49.592;8.662;2023-05-20T05:30:54;100009.19;;;14.24;64.36
11041;BME280;5573;49.592;8.662;2023-05-20T05:33:22;99997.53;;;14.30;64.87
11041;BME280;5573;49.592;8.662;2023-05-20T05:35:51;100002.25;;;14.46;64.46
11041;BME280;5573;49.592;8.662;2023-05-20T05:38:19;99995.84;;;14.47;64.75
11041;BME280;5573;49.592;8.662;2023-05-20T05:40:48;99992.59;;;14.57;64.73
11041;BME280;5573;49.592;8.662;2023-05-20T05:43:16;99990.13;;;14.79;63.88
11041;BME280;5573;49.592;8.662;2023-05-20T05:45:46;99999.94;;;14.73;64.47
11041;BME280;5573;49.592;8.662;2023-05-20T05:48:13;99999.69;;;14.86;63.71
11041;BME280;5573;49.592;8.662;2023-05-20T05:50:43;99991.53;;;14.93;63.51
11041;BME280;5573;49.592;8.662;2023-05-20T05:53:13;100000.63;;;15.03;62.55
11041;BME280;5573;49.592;8.662;2023-05-20T05:55:45;99990.47;;;15.17;62.83
11041;BME280;5573;49.592;8.662;2023-05-20T05:58:15;99993.38;;;15.04;62.90
11041;BME280;5573;49.592;8.662;2023-05-20T06:00:43;99988.25;;;15.14;63.59
11041;BME280;5573;49.592;8.662;2023-05-20T06:03:11;99996.03;;;15.27;62.65
11041;BME280;5573;49.592;8.662;2023-05-20T06:05:39;99999.41;;;15.34;62.39
11041;BME280;5573;49.592;8.662;2023-05-20T06:08:07;99998.47;;;15.40;62.56
11041;BME280;5573;49.592;8.662;2023-05-20T06:10:35;99992.13;;;15.46;62.19
11041;BME280;5573;49.592;8.662;2023-05-20T06:13:03;99997.13;;;15.66;62.29
11041;BME280;5573;49.592;8.662;2023-05-20T06:15:34;99999.28;;;15.81;61.36
11041;BME280;5573;49.592;8.662;2023-05-20T06:18:02;100003.69;;;15.87;60.87
11041;BME280;5573;49.592;8.662;2023-05-20T06:20:31;100001.56;;;15.61;61.60
11041;BME280;5573;49.592;8.662;2023-05-20T06:22:59;99995.63;;;15.59;62.25
11041;BME280;5573;49.592;8.662;2023-05-20T06:25:44;100005.59;;;15.75;62.44
11041;BME280;5573;49.592;8.662;2023-05-20T06:28:13;99999.28;;;15.81;61.46
11041;BME280;5573;49.592;8.662;2023-05-20T06:30:42;99986.72;;;15.70;62.37
11041;BME280;5573;49.592;8.662;2023-05-20T06:33:10;99997.63;;;15.63;62.38
11041;BME280;5573;49.592;8.662;2023-05-20T06:35:38;99987.88;;;15.74;62.70
11041;BME280;5573;49.592;8.662;2023-05-20T06:38:06;99993.44;;;15.84;61.30
11041;BME280;5573;49.592;8.662;2023-05-20T06:40:34;99994.63;;;15.76;62.84
11041;BME280;5573;49.592;8.662;2023-05-20T06:43:02;99991.78;;;15.83;62.29
11041;BME280;5573;49.592;8.662;2023-05-20T06:45:53;99989.09;;;16.11;61.07
11041;BME280;5573;49.592;8.662;2023-05-20T06:48:26;99989.88;;;16.12;60.53
11041;BME280;5573;49.592;8.662;2023-05-20T06:50:55;99995.13;;;16.18;60.60
11041;BME280;5573;49.592;8.662;2023-05-20T06:53:23;100000.13;;;16.26;60.90
11041;BME280;5573;49.592;8.662;2023-05-20T06:55:52;99998.75;;;16.12;62.00
11041;BME280;5573;49.592;8.662;2023-05-20T06:58:22;99998.13;;;16.38;61.00
11041;BME280;5573;49.592;8.662;2023-05-20T07:00:54;100005.72;;;16.25;61.70
11041;BME280;5573;49.592;8.662;2023-05-20T07:03:24;100011.97;;;16.14;61.29
11041;BME280;5573;49.592;8.662;2023-05-20T07:05:52;100000.00;;;16.38;60.94
11041;BME280;5573;49.592;8.662;2023-05-20T07:08:20;99991.63;;;16.34;60.84
11041;BME280;5573;49.592;8.662;2023-05-20T07:10:48;99992.69;;;16.33;62.26
11041;BME280;5573;49.592;8.662;2023-05-20T07:13:19;99983.09;;;16.37;60.18
11041;BME280;5573;49.592;8.662;2023-05-20T07:15:50;99989.63;;;16.58;61.48
11041;BME280;5573;49.592;8.662;2023-05-20T07:18:19;99979.81;;;16.69;59.46
11041;BME280;5573;49.592;8.662;2023-05-20T07:20:52;99977.72;;;16.71;60.72
11041;BME280;5573;49.592;8.662;2023-05-20T07:23:33;99968.50;;;17.05;58.69
11041;BME280;5573;49.592;8.662;2023-05-20T07:26:01;99970.13;;;17.06;59.28
11041;BME280;5573;49.592;8.662;2023-05-20T07:28:28;99970.41;;;17.26;58.80
11041;BME280;5573;49.592;8.662;2023-05-20T07:30:57;99971.53;;;17.74;58.75
11041;BME280;5573;49.592;8.662;2023-05-20T07:33:29;99975.00;;;18.60;55.54
11041;BME280;5573;49.592;8.662;2023-05-20T07:35:57;99972.91;;;19.96;50.76
11041;BME280;5573;49.592;8.662;2023-05-20T07:38:25;99977.03;;;20.69;48.51
11041;BME280;5573;49.592;8.662;2023-05-20T07:40:58;99957.59;;;21.42;45.90
11041;BME280;5573;49.592;8.662;2023-05-20T07:43:26;99961.50;;;21.10;48.45
11041;BME280;5573;49.592;8.662;2023-05-20T07:45:55;99956.19;;;21.54;47.43
11041;BME280;5573;49.592;8.662;2023-05-20T07:48:23;99949.59;;;20.96;48.42
11041;BME280;5573;49.592;8.662;2023-05-20T07:50:52;99952.94;;;20.63;49.95
11041;BME280;5573;49.592;8.662;2023-05-20T07:53:22;99963.50;;;20.64;49.75
11041;BME280;5573;49.592;8.662;2023-05-20T07:55:50;99971.56;;;20.90;49.44
11041;BME280;5573;49.592;8.662;2023-05-20T07:58:19;99968.53;;;21.11;48.89
11041;BME280;5573;49.592;8.662;2023-05-20T08:00:48;99963.28;;;21.89;46.83
11041;BME280;5573;49.592;8.662;2023-05-20T08:03:16;99960.13;;;22.21;44.74
11041;BME280;5573;49.592;8.662;2023-05-20T08:05:54;99965.69;;;22.35;45.56
11041;BME280;5573;49.592;8.662;2023-05-20T08:08:22;99961.03;;;22.40;45.64
11041;BME280;5573;49.592;8.662;2023-05-20T08:10:54;99949.66;;;22.38;44.69
11041;BME280;5573;49.592;8.662;2023-05-20T08:13:24;99941.97;;;21.18;47.31
11041;BME280;5573;49.592;8.662;2023-05-20T08:15:52;99952.13;;;20.52;49.49
11041;BME280;5573;49.592;8.662;2023-05-20T08:18:20;99954.84;;;20.52;51.27
11041;BME280;5573;49.592;8.662;2023-05-20T08:20:48;99955.09;;;20.61;49.83
11041;BME280;5573;49.592;8.662;2023-05-20T08:23:18;99945.09;;;20.16;50.31
11041;BME280;5573;49.592;8.662;2023-05-20T08:25:46;99952.94;;;20.12;49.92
11041;BME280;5573;49.592;8.662;2023-05-20T08:28:15;99943.47;;;20.10;50.76
11041;BME280;5573;49.592;8.662;2023-05-20T08:30:43;99944.53;;;20.19;50.54
11041;BME280;5573;49.592;8.662;2023-05-20T08:33:13;99957.28;;;20.44;53.17
11041;BME280;5573;49.592;8.662;2023-05-20T08:35:41;99944.56;;;20.34;50.68
11041;BME280;5573;49.592;8.662;2023-05-20T08:38:08;99951.59;;;20.55;50.43
11041;BME280;5573;49.592;8.662;2023-05-20T08:40:38;99944.97;;;21.12;48.62
11041;BME280;5573;49.592;8.662;2023-05-20T08:43:06;99943.09;;;20.97;48.34
11041;BME280;5573;49.592;8.662;2023-05-20T08:45:37;99927.16;;;20.86;48.99
11041;BME280;5573;49.592;8.662;2023-05-20T08:48:10;99949.03;;;21.14;48.22
11041;BME280;5573;49.592;8.662;2023-05-20T08:50:38;99943.09;;;20.97;48.21
11041;BME280;5573;49.592;8.662;2023-05-20T08:53:06;99894.41;;;20.87;48.46
11041;BME280;5573;49.592;8.662;2023-05-20T08:55:40;99938.69;;;21.26;48.84
11041;BME280;5573;49.592;8.662;2023-05-20T08:58:09;99932.78;;;21.09;48.56
11041;BME280;5573;49.592;8.662;2023-05-20T09:00:37;99934.25;;;20.76;48.57
11041;BME280;5573;49.592;8.662;2023-05-20T09:03:05;99926.06;;;20.92;49.12
11041;BME280;5573;49.592;8.662;2023-05-20T09:05:33;99917.34;;;21.10;48.16
11041;BME280;5573;49.592;8.662;2023-05-20T09:08:05;99918.16;;;21.00;48.36
11041;BME280;5573;49.592;8.662;2023-05-20T09:10:34;99894.09;;;20.94;47.94
11041;BME280;5573;49.592;8.662;2023-05-20T09:13:05;99916.03;;;20.97;49.42
11041;BME280;5573;49.592;8.662;2023-05-20T09:15:34;99914.38;;;21.06;48.45
11041;BME280;5573;49.592;8.662;2023-05-20T09:18:04;99929.09;;;20.80;50.07
11041;BME280;5573;49.592;8.662;2023-05-20T09:20:33;99909.34;;;20.64;48.67
11041;BME280;5573;49.592;8.662;2023-05-20T09:23:05;99911.22;;;20.84;49.52
11041;BME280;5573;49.592;8.662;2023-05-20T09:25:33;99909.88;;;20.76;48.68
11041;BME280;5573;49.592;8.662;2023-05-20T09:28:05;99903.16;;;20.33;47.42
11041;BME280;5573;49.592;8.662;2023-05-20T09:30:33;99927.50;;;20.59;50.03
11041;BME280;5573;49.592;8.662;2023-05-20T09:33:04;99908.16;;;20.96;48.96
11041;BME280;5573;49.592;8.662;2023-05-20T09:35:34;99913.06;;;20.99;47.93
11041;BME280;5573;49.592;8.662;2023-05-20T09:38:04;99916.81;;;21.13;49.73
11041;BME280;5573;49.592;8.662;2023-05-20T09:40:32;99908.72;;;20.98;47.86
11041;BME280;5573;49.592;8.662;2023-05-20T09:43:05;99917.09;;;20.96;47.53
11041;BME280;5573;49.592;8.662;2023-05-20T09:45:33;99908.75;;;20.83;47.70
11041;BME280;5573;49.592;8.662;2023-05-20T09:48:03;99914.03;;;21.28;47.61
11041;BME280;5573;49.592;8.662;2023-05-20T09:50:32;99911.34;;;21.18;47.92
11041;BME280;5573;49.592;8.662;2023-05-20T09:53:01;99910.56;;;21.07;47.55
11041;BME280;5573;49.592;8.662;2023-05-20T09:55:30;99918.44;;;21.14;46.47
11041;BME280;5573;49.592;8.662;2023-05-20T09:58:01;99906.28;;;20.96;49.52
11041;BME280;5573;49.592;8.662;2023-05-20T10:00:30;99914.06;;;21.23;47.86
11041;BME280;5573;49.592;8.662;2023-05-20T10:02:59;99917.53;;;21.34;46.99
11041;BME280;5573;49.592;8.662;2023-05-20T10:05:29;99908.22;;;21.50;47.40
11041;BME280;5573;49.592;8.662;2023-05-20T10:08:36;99893.69;;;21.36;45.75
11041;BME280;5573;49.592;8.662;2023-05-20T10:11:15;99895.06;;;21.72;45.59
11041;BME280;5573;49.592;8.662;2023-05-20T10:13:58;99896.44;;;21.69;44.79
11041;BME280;5573;49.592;8.662;2023-05-20T10:16:40;99905.31;;;21.80;48.73
11041;BME280;5573;49.592;8.662;2023-05-20T10:19:20;99899.56;;;21.92;46.27
11041;BME280;5573;49.592;8.662;2023-05-20T10:21:59;99877.28;;;22.29;46.78
11041;BME280;5573;49.592;8.662;2023-05-20T10:24:29;99902.78;;;22.28;45.57
11041;BME280;5573;49.592;8.662;2023-05-20T10:26:59;99895.22;;;22.53;46.21
11041;BME280;5573;49.592;8.662;2023-05-20T10:29:28;99904.78;;;22.46;45.32
11041;BME280;5573;49.592;8.662;2023-05-20T10:31:57;99905.22;;;22.29;45.91
11041;BME280;5573;49.592;8.662;2023-05-20T10:34:25;99897.03;;;22.34;43.72
11041;BME280;5573;49.592;8.662;2023-05-20T10:36:57;99894.69;;;22.22;45.61
11041;BME280;5573;49.592;8.662;2023-05-20T10:39:27;99889.34;;;22.12;45.39
11041;BME280;5573;49.592;8.662;2023-05-20T10:42:05;99847.19;;;22.49;46.36
11041;BME280;5573;49.592;8.662;2023-05-20T10:44:40;99882.91;;;22.61;46.31
11041;BME280;5573;49.592;8.662;2023-05-20T10:47:10;99872.66;;;22.82;46.22
11041;BME280;5573;49.592;8.662;2023-05-20T10:49:43;99872.91;;;22.85;43.42
11041;BME280;5573;49.592;8.662;2023-05-20T10:52:12;99875.66;;;22.80;45.49
11041;BME280;5573;49.592;8.662;2023-05-20T10:54:43;99870.97;;;22.62;43.50
11041;BME280;5573;49.592;8.662;2023-05-20T10:57:12;99873.63;;;22.14;44.80
11041;BME280;5573;49.592;8.662;2023-05-20T10:59:41;99879.53;;;22.45;45.48
11041;BME280;5573;49.592;8.662;2023-05-20T11:02:10;99868.00;;;22.58;45.12
11041;BME280;5573;49.592;8.662;2023-05-20T11:04:38;99857.66;;;22.60;44.54
11041;BME280;5573;49.592;8.662;2023-05-20T11:07:09;99862.78;;;22.38;46.02
11041;BME280;5573;49.592;8.662;2023-05-20T11:09:37;99863.88;;;22.08;45.88
11041;BME280;5573;49.592;8.662;2023-05-20T11:12:05;99872.81;;;22.38;45.62
11041;BME280;5573;49.592;8.662;2023-05-20T11:14:34;99858.00;;;22.54;43.39
11041;BME280;5573;49.592;8.662;2023-05-20T11:17:02;99859.06;;;22.58;45.19
11041;BME280;5573;49.592;8.662;2023-05-20T11:19:31;99856.34;;;22.58;44.07
11041;BME280;5573;49.592;8.662;2023-05-20T11:21:59;99843.19;;;22.17;44.31
11041;BME280;5573;49.592;8.662;2023-05-20T11:24:27;99848.00;;;22.97;46.13
11041;BME280;5573;49.592;8.662;2023-05-20T11:26:56;99833.06;;;22.99;44.63
11041;BME280;5573;49.592;8.662;2023-05-20T11:29:26;99839.41;;;22.42;45.01
11041;BME280;5573;49.592;8.662;2023-05-20T11:31:54;99840.44;;;22.46;44.06
11041;BME280;5573;49.592;8.662;2023-05-20T11:34:22;99836.41;;;22.15;46.57
11041;BME280;5573;49.592;8.662;2023-05-20T11:36:56;99803.47;;;21.64;46.03
11041;BME280;5573;49.592;8.662;2023-05-20T11:39:25;99841.97;;;22.00;46.43
11041;BME280;5573;49.592;8.662;2023-05-20T11:41:56;99838.25;;;22.48;46.14
11041;BME280;5573;49.592;8.662;2023-05-20T11:44:24;99828.94;;;23.20;43.24
11041;BME280;5573;49.592;8.662;2023-05-20T11:46:58;99833.78;;;23.05;42.63
11041;BME280;5573;49.592;8.662;2023-05-20T11:49:27;99834.94;;;22.80;45.38
11041;BME280;5573;49.592;8.662;2023-05-20T11:51:57;99833.03;;;22.81;44.27
11041;BME280;5573;49.592;8.662;2023-05-20T11:54:25;99830.44;;;22.42;45.36
11041;BME280;5573;49.592;8.662;2023-05-20T11:56:53;99828.03;;;22.64;45.40
11041;BME280;5573;49.592;8.662;2023-05-20T11:59:23;99833.56;;;22.54;44.97
11041;BME280;5573;49.592;8.662;2023-05-20T12:01:51;99833.16;;;22.42;45.00
11041;BME280;5573;49.592;8.662;2023-05-20T12:04:19;99835.84;;;22.47;46.86
11041;BME280;5573;49.592;8.662;2023-05-20T12:06:47;99806.53;;;22.20;46.30
11041;BME280;5573;49.592;8.662;2023-05-20T12:09:16;99828.94;;;22.31;46.65
11041;BME280;5573;49.592;8.662;2023-05-20T12:11:44;99826.97;;;22.60;44.29
11041;BME280;5573;49.592;8.662;2023-05-20T12:14:12;99823.44;;;22.59;44.31
11041;BME280;5573;49.592;8.662;2023-05-20T12:16:40;99827.75;;;22.65;44.15
11041;BME280;5573;49.592;8.662;2023-05-20T12:19:08;99822.84;;;22.67;44.89
11041;BME280;5573;49.592;8.662;2023-05-20T12:21:36;99818.16;;;22.49;44.37
11041;BME280;5573;49.592;8.662;2023-05-20T12:24:04;99810.81;;;22.50;45.98
11041;BME280;5573;49.592;8.662;2023-05-20T12:26:36;99804.16;;;22.61;45.96
11041;BME280;5573;49.592;8.662;2023-05-20T12:29:03;99798.78;;;23.41;43.48
11041;BME280;5573;49.592;8.662;2023-05-20T12:31:32;99813.63;;;23.48;42.87
11041;BME280;5573;49.592;8.662;2023-05-20T12:34:01;99816.19;;;23.21;43.11
11041;BME280;5573;49.592;8.662;2023-05-20T12:36:29;99811.44;;;22.89;42.62
11041;BME280;5573;49.592;8.662;2023-05-20T12:38:57;99811.94;;;22.73;44.03
11041;BME280;5573;49.592;8.662;2023-05-20T12:41:25;99807.59;;;22.48;44.07
11041;BME280;5573;49.592;8.662;2023-05-20T12:43:54;99817.69;;;22.66;45.68
11041;BME280;5573;49.592;8.662;2023-05-20T12:46:21;99809.56;;;23.46;43.63
11041;BME280;5573;49.592;8.662;2023-05-20T12:48:49;99805.59;;;23.38;40.82
11041;BME280;5573;49.592;8.662;2023-05-20T12:51:19;99803.31;;;23.08;43.99
11041;BME280;5573;49.592;8.662;2023-05-20T12:53:47;99797.19;;;22.97;44.85
11041;BME280;5573;49.592;8.662;2023-05-20T12:56:15;99797.38;;;23.25;44.09
11041;BME280;5573;49.592;8.662;2023-05-20T12:58:43;99801.75;;;23.77;44.01
11041;BME280;5573;49.592;8.662;2023-05-20T13:01:12;99792.06;;;24.17;39.36
11041;BME280;5573;49.592;8.662;2023-05-20T13:03:40;99794.13;;;23.92;41.52
11041;BME280;5573;49.592;8.662;2023-05-20T13:06:07;99796.16;;;24.00;39.20
11041;BME280;5573;49.592;8.662;2023-05-20T13:08:36;99799.66;;;23.87;42.39
11041;BME280;5573;49.592;8.662;2023-05-20T13:11:03;99806.13;;;23.59;43.23
11041;BME280;5573;49.592;8.662;2023-05-20T13:13:31;99800.75;;;23.86;41.03
11041;BME280;5573;49.592;8.662;2023-05-20T13:15:59;99796.03;;;23.92;40.88